Time;durP1;ratioP1;P1;durP2;ratioP2;P2;SDS_P1;SDS_P2;PMS_P1;PMS_P2;Temp;Humidity;BMP_temperature;BMP_pressure;BME280_temperature;BME280_humidity;BME280_pressure;Samples;Min_cycle;Max_cycle;Signal;HPM_P1;HPM_P2
2022/03/24 00:02:06;;;;;;;22.67;17.00;;;;;;;9.60;47.25;99775.47;4915820;29;20027;-50
2022/03/24 00:04:32;;;;;;;25.27;16.50;;;;;;;9.67;47.55;99780.84;4915830;29;20074;-50
2022/03/24 00:06:57;;;;;;;25.40;15.43;;;;;;;9.96;47.03;99775.03;4915865;29;20391;-49
2022/03/24 00:09:23;;;;;;;21.10;15.65;;;;;;;10.23;46.17;99766.91;4914438;29;20060;-49
2022/03/24 00:11:49;;;;;;;21.73;15.98;;;;;;;10.41;46.36;99771.94;4914409;29;20079;-49
2022/03/24 00:14:18;;;;;;;24.60;14.80;;;;;;;10.73;45.18;99771.72;4914384;29;20032;-50
2022/03/24 00:16:44;;;;;;;27.83;15.45;;;;;;;10.94;45.51;99765.81;4915643;29;20031;-49
2022/03/24 00:19:09;;;;;;;25.95;15.57;;;;;;;11.08;44.43;99760.81;4914373;29;20138;-49
2022/03/24 00:21:36;;;;;;;27.30;16.35;;;;;;;10.98;44.17;99763.66;4914677;29;20051;-49
2022/03/24 00:24:01;;;;;;;22.55;15.77;;;;;;;10.84;44.40;99757.38;4915432;29;20608;-49
2022/03/24 00:26:27;;;;;;;28.40;15.73;;;;;;;10.65;45.13;99757.84;4915636;29;20040;-49
2022/03/24 00:28:53;;;;;;;25.13;15.73;;;;;;;10.66;44.65;99759.47;4915546;29;20024;-50
2022/03/24 00:31:19;;;;;;;25.52;16.55;;;;;;;10.36;45.46;99760.16;4915560;29;20055;-49
2022/03/24 00:33:45;;;;;;;27.00;18.13;;;;;;;10.20;45.88;99763.63;4915543;29;20095;-50
2022/03/24 00:36:14;;;;;;;23.75;16.02;;;;;;;10.03;46.32;99759.44;4914215;29;20127;-50
2022/03/24 00:38:40;;;;;;;23.55;17.20;;;;;;;9.94;46.36;99760.44;4918622;29;20517;-50
2022/03/24 00:41:06;;;;;;;25.88;17.02;;;;;;;10.00;46.81;99752.75;4919302;29;20062;-49
2022/03/24 00:43:33;;;;;;;24.15;16.42;;;;;;;9.98;46.60;99754.72;4919313;29;20067;-49
2022/03/24 00:45:59;;;;;;;21.30;16.65;;;;;;;9.96;46.37;99751.44;4917892;29;20031;-50
2022/03/24 00:48:26;;;;;;;24.73;16.48;;;;;;;9.92;46.68;99750.16;4917860;29;20450;-49
2022/03/24 00:50:53;;;;;;;21.33;15.15;;;;;;;9.92;46.43;99757.19;4919123;29;20421;-49
2022/03/24 00:53:18;;;;;;;21.17;16.75;;;;;;;9.69;46.92;99751.84;4919078;29;20091;-50
2022/03/24 00:55:44;;;;;;;23.13;15.52;;;;;;;9.50;47.53;99747.81;4917763;29;20028;-49
2022/03/24 00:58:11;;;;;;;22.20;16.33;;;;;;;9.32;47.59;99748.81;4917737;29;20111;-49
2022/03/24 01:00:40;;;;;;;21.45;17.20;;;;;;;9.01;48.56;99743.44;4918945;29;20118;-49
2022/03/24 01:03:06;;;;;;;24.48;18.65;;;;;;;8.91;48.88;99745.38;4919140;29;20104;-49
2022/03/24 01:05:37;;;;;;;24.17;18.50;;;;;;;8.89;49.13;99740.31;4918890;29;20115;-49
2022/03/24 01:08:08;;;;;;;26.60;17.75;;;;;;;8.89;49.74;99735.06;4918839;29;20032;-49
2022/03/24 01:10:36;;;;;;;24.50;17.73;;;;;;;8.99;49.13;99740.16;4917521;29;20036;-49
2022/03/24 01:13:03;;;;;;;22.83;16.40;;;;;;;9.03;49.28;99738.84;4917447;29;20035;-50
2022/03/24 01:15:30;;;;;;;20.77;16.48;;;;;;;8.97;48.84;99744.75;4918633;29;20036;-49
2022/03/24 01:17:59;;;;;;;26.25;18.08;;;;;;;8.83;49.00;99742.78;4918681;29;20039;-49
2022/03/24 01:20:26;;;;;;;22.23;16.77;;;;;;;8.61;49.55;99739.78;4918613;29;20063;-49
2022/03/24 01:22:52;;;;;;;23.67;15.73;;;;;;;8.41;50.68;99741.91;4917002;29;20040;-49
2022/03/24 01:25:18;;;;;;;23.52;17.42;;;;;;;8.37;50.80;99740.53;4918514;29;20024;-49
2022/03/24 01:27:44;;;;;;;21.67;17.40;;;;;;;8.20;51.19;99737.88;4918408;29;20450;-49
2022/03/24 01:30:11;;;;;;;28.58;18.50;;;;;;;8.07;51.26;99736.69;4918460;29;20028;-49
2022/03/24 01:32:37;;;;;;;23.42;17.88;;;;;;;7.95;51.66;99736.19;4918448;29;20024;-50
2022/03/24 01:35:07;;;;;;;23.52;16.33;;;;;;;7.98;51.56;99736.66;4918360;29;20442;-50
2022/03/24 01:37:35;;;;;;;25.02;17.27;;;;;;;8.03;51.30;99733.59;4918288;29;20087;-49
2022/03/24 01:40:02;;;;;;;26.52;16.55;;;;;;;7.91;52.15;99742.69;4916940;29;20172;-49
2022/03/24 01:42:28;;;;;;;19.85;16.23;;;;;;;7.77;51.91;99737.06;4916929;29;20522;-49
2022/03/24 01:44:56;;;;;;;23.65;16.42;;;;;;;7.61;52.28;99747.44;4918177;29;20055;-50
2022/03/24 01:47:22;;;;;;;24.80;16.77;;;;;;;7.52;52.76;99741.31;4918062;29;20047;-49
2022/03/24 01:49:48;;;;;;;26.08;16.83;;;;;;;7.47;53.34;99740.19;4916357;29;20494;-49
2022/03/24 01:52:16;;;;;;;25.55;16.42;;;;;;;7.54;52.67;99744.59;4916734;29;20404;-49
2022/03/24 01:54:48;;;;;;;20.50;15.88;;;;;;;7.70;52.87;99738.66;4918001;29;20041;-49
2022/03/24 01:57:15;;;;;;;22.73;15.82;;;;;;;7.80;52.92;99734.13;4917992;29;20036;-49
2022/03/24 01:59:41;;;;;;;21.15;15.95;;;;;;;7.80;51.96;99739.34;4916638;29;20025;-49
2022/03/24 02:02:09;;;;;;;21.92;15.20;;;;;;;7.65;52.26;99733.09;4916591;29;20039;-49
2022/03/24 02:04:36;;;;;;;20.77;15.60;;;;;;;7.74;52.64;99724.31;4917918;29;20032;-50
2022/03/24 02:07:04;;;;;;;22.60;15.52;;;;;;;7.78;52.86;99730.03;4916361;29;20043;-50
2022/03/24 02:09:30;;;;;;;19.98;16.23;;;;;;;7.79;52.81;99726.47;4916411;29;20036;-49
2022/03/24 02:11:56;;;;;;;22.52;15.93;;;;;;;7.82;52.63;99723.53;4917712;29;20024;-50
2022/03/24 02:14:22;;;;;;;24.98;15.32;;;;;;;7.85;51.87;99727.63;4917711;29;20447;-49
2022/03/24 02:16:49;;;;;;;21.00;14.65;;;;;;;7.98;51.74;99723.59;4916328;29;20518;-50
2022/03/24 02:19:16;;;;;;;18.00;12.57;;;;;;;8.07;51.34;99726.22;4917549;29;20060;-49
2022/03/24 02:21:43;;;;;;;30.10;16.40;;;;;;;8.01;52.16;99730.31;4917290;29;20047;-49
2022/03/24 02:24:12;;;;;;;17.13;14.35;;;;;;;8.05;51.03;99722.94;4917569;29;20404;-50
2022/03/24 02:26:40;;;;;;;23.35;14.48;;;;;;;8.01;51.79;99725.09;4917447;29;20413;-49
2022/03/24 02:29:07;;;;;;;22.88;14.68;;;;;;;8.06;51.47;99724.59;4916073;29;20028;-50
2022/03/24 02:31:43;;;;;;;21.83;14.48;;;;;;;8.18;51.55;99721.53;4916071;29;20032;-49
2022/03/24 02:36:57;;;;;;;23.52;16.73;;;;;;;7.85;52.08;99728.44;4917554;29;20095;-50
2022/03/24 02:39:23;;;;;;;24.02;16.08;;;;;;;7.59;52.47;99721.47;4917151;29;20091;-49
2022/03/24 02:41:52;;;;;;;25.42;16.15;;;;;;;7.55;53.10;99719.31;4915875;29;20498;-50
2022/03/24 02:44:20;;;;;;;26.00;16.92;;;;;;;7.43;53.28;99712.72;4917096;29;20411;-49
2022/03/24 02:46:48;;;;;;;21.05;15.93;;;;;;;7.37;52.95;99712.34;4915717;29;20031;-49
2022/03/24 02:49:14;;;;;;;20.20;16.20;;;;;;;7.36;53.58;99718.56;4916985;29;20047;-49
2022/03/24 02:51:40;;;;;;;20.55;15.23;;;;;;;7.23;53.07;99712.94;4915654;29;20055;-50
2022/03/24 02:54:08;;;;;;;23.48;16.83;;;;;;;7.07;54.32;99716.25;4916945;29;20055;-49
2022/03/24 02:56:34;;;;;;;23.30;17.00;;;;;;;6.96;54.51;99713.84;4916835;29;20028;-49
2022/03/24 02:59:01;;;;;;;21.88;16.17;;;;;;;6.93;54.51;99722.00;4916839;29;20376;-50
2022/03/24 03:01:27;;;;;;;25.70;19.58;;;;;;;7.07;54.98;99718.84;4916101;29;20075;-50
2022/03/24 03:03:53;;;;;;;22.35;18.90;;;;;;;7.39;54.70;99715.63;4915441;29;20024;-49
2022/03/24 03:06:20;;;;;;;28.77;18.85;;;;;;;7.63;53.35;99706.31;4916717;29;20032;-50
2022/03/24 03:08:49;;;;;;;21.65;17.25;;;;;;;7.65;52.75;99712.19;4916998;29;20050;-49
2022/03/24 03:11:22;;;;;;;23.33;15.77;;;;;;;7.42;53.55;99721.53;4916665;29;20502;-50
2022/03/24 03:13:49;;;;;;;28.20;16.85;;;;;;;7.37;53.78;99712.34;4916609;29;20115;-49
2022/03/24 03:16:16;;;;;;;24.30;16.40;;;;;;;7.38;54.28;99714.00;4915245;29;20090;-49
2022/03/24 03:18:42;;;;;;;28.63;16.83;;;;;;;7.34;54.34;99712.66;4916522;29;20115;-49
2022/03/24 03:21:09;;;;;;;22.27;16.42;;;;;;;7.42;53.72;99713.69;4916412;29;20540;-50
2022/03/24 03:23:38;;;;;;;23.83;16.35;;;;;;;7.43;53.76;99716.16;4916237;29;20080;-49
2022/03/24 03:26:07;;;;;;;23.70;17.55;;;;;;;7.38;54.02;99716.63;4915038;29;20087;-49
2022/03/24 03:28:34;;;;;;;21.13;17.02;;;;;;;7.45;53.86;99722.03;4916225;29;20047;-50
2022/03/24 03:31:00;;;;;;;22.60;17.17;;;;;;;7.29;53.54;99719.34;4915040;29;20114;-50
2022/03/24 03:33:26;;;;;;;27.58;17.33;;;;;;;7.22;53.84;99724.31;4916297;29;20095;-49
2022/03/24 03:35:52;;;;;;;22.08;15.93;;;;;;;7.17;53.81;99719.56;4916199;29;20024;-48
2022/03/24 03:38:19;;;;;;;25.75;16.17;;;;;;;7.32;54.27;99719.81;4914878;29;20047;-50
2022/03/24 03:40:46;;;;;;;22.10;16.00;;;;;;;7.42;53.60;99722.34;4916154;29;20371;-50
2022/03/24 03:43:12;;;;;;;24.33;16.50;;;;;;;7.69;53.42;99728.38;4914839;29;20058;-50
2022/03/24 03:45:38;;;;;;;20.63;16.20;;;;;;;7.99;52.78;99709.56;4916080;29;20372;-50
2022/03/24 03:48:05;;;;;;;23.15;16.27;;;;;;;7.91;52.40;99717.38;4916026;29;20550;-49
2022/03/24 03:50:31;;;;;;;25.35;16.48;;;;;;;7.69;52.45;99721.34;4915976;29;20028;-50
2022/03/24 03:52:57;;;;;;;27.38;17.95;;;;;;;7.80;53.04;99713.22;4914711;29;20036;-49
2022/03/24 03:55:23;;;;;;;26.77;17.02;;;;;;;7.79;52.16;99724.66;4915945;29;20024;-49
2022/03/24 03:57:49;;;;;;;23.70;17.88;;;;;;;7.70;52.19;99717.75;4915897;29;20545;-50
2022/03/24 04:03:03;;;;;;;23.83;16.85;;;;;;;7.34;53.65;99720.50;4915924;29;20562;-50
2022/03/24 04:05:35;;;;;;;24.60;17.08;;;;;;;7.19;53.94;99724.66;4915825;29;20036;-49
2022/03/24 04:08:01;;;;;;;25.75;16.70;;;;;;;7.16;54.24;99722.31;4915733;29;20092;-49
2022/03/24 04:10:27;;;;;;;26.77;16.90;;;;;;;7.08;54.24;99728.31;4914416;29;20383;-49
2022/03/24 04:12:57;;;;;;;28.98;15.70;;;;;;;7.05;54.92;99727.81;4915575;29;20596;-49
2022/03/24 04:15:24;;;;;;;24.33;17.10;;;;;;;7.19;53.92;99733.28;4915661;29;20394;-49
2022/03/24 04:17:53;;;;;;;21.75;16.42;;;;;;;7.30;53.70;99726.19;4915662;29;20103;-49
2022/03/24 04:20:23;;;;;;;25.48;15.57;;;;;;;7.35;54.37;99724.75;4915609;29;20099;-49
2022/03/24 04:22:53;;;;;;;21.73;16.88;;;;;;;7.28;53.63;99728.94;4915377;29;20095;-49
2022/03/24 04:25:22;;;;;;;20.70;16.23;;;;;;;7.11;53.50;99729.81;4915539;29;20035;-49
2022/03/24 04:27:50;;;;;;;29.50;16.73;;;;;;;7.04;54.51;99729.56;4915456;29;20397;-49
2022/03/24 04:30:17;;;;;;;25.27;15.90;;;;;;;7.26;54.22;99736.09;4915557;29;20024;-48
2022/03/24 04:32:46;;;;;;;19.75;16.13;;;;;;;7.32;54.10;99726.84;4915561;29;20043;-49
2022/03/24 04:35:16;;;;;;;25.90;17.60;;;;;;;7.25;54.02;99728.44;4915510;29;20443;-49
2022/03/24 04:37:43;;;;;;;21.55;16.25;;;;;;;7.37;53.45;99727.22;4915466;29;20392;-49
2022/03/24 04:40:15;;;;;;;27.27;17.85;;;;;;;7.37;53.03;99725.41;4915427;29;20394;-49
2022/03/24 04:42:42;;;;;;;23.08;18.90;;;;;;;7.08;53.57;99730.91;4915485;29;20079;-48
2022/03/24 04:45:09;;;;;;;26.85;19.55;;;;;;;6.78;54.77;99727.75;4929971;29;20028;-49
2022/03/24 04:47:36;;;;;;;22.08;17.40;;;;;;;6.85;54.87;99732.38;4915354;29;20076;-49
2022/03/24 04:50:03;;;;;;;26.05;19.00;;;;;;;7.07;54.18;99726.69;4915358;29;20033;-49
2022/03/24 04:52:29;;;;;;;22.08;15.98;;;;;;;7.20;53.76;99728.88;4914035;29;20032;-49
2022/03/24 04:54:55;;;;;;;21.38;15.55;;;;;;;7.17;54.12;99726.59;4914115;29;20087;-49
2022/03/24 04:57:21;;;;;;;24.90;15.05;;;;;;;7.02;54.30;99726.31;4915319;29;20436;-49
2022/03/24 04:59:46;;;;;;;26.85;15.32;;;;;;;7.21;54.45;99733.16;4914011;29;20028;-49
2022/03/24 05:02:15;;;;;;;26.60;15.60;;;;;;;7.35;53.53;99734.38;4913988;29;20035;-49
2022/03/24 05:04:45;;;;;;;28.13;15.88;;;;;;;7.39;53.37;99731.31;4913971;29;20059;-49
2022/03/24 05:07:11;;;;;;;25.98;16.13;;;;;;;7.52;53.45;99732.69;4915180;29;20036;-49
2022/03/24 05:09:38;;;;;;;24.50;16.90;;;;;;;7.51;52.50;99734.47;4915223;29;20051;-49
2022/03/24 05:12:04;;;;;;;28.88;15.82;;;;;;;7.37;52.92;99737.66;4915231;29;20225;-48
2022/03/24 05:14:31;;;;;;;21.77;16.45;;;;;;;7.29;53.88;99738.44;4913894;29;20119;-49
2022/03/24 05:16:57;;;;;;;19.73;15.27;;;;;;;7.28;53.30;99733.34;4915260;29;20024;-49
2022/03/24 05:19:23;;;;;;;25.40;16.73;;;;;;;7.16;53.43;99745.81;4915192;29;20031;-48
2022/03/24 05:21:49;;;;;;;24.10;16.73;;;;;;;6.97;54.41;99742.41;4913674;29;20040;-48
2022/03/24 05:24:15;;;;;;;22.27;16.27;;;;;;;6.90;54.15;99741.41;4917469;29;20025;-49
2022/03/24 05:26:41;;;;;;;24.10;17.13;;;;;;;6.84;54.67;99746.38;4918543;29;20367;-49
2022/03/24 05:29:07;;;;;;;21.23;16.38;;;;;;;6.89;54.53;99741.53;4917194;29;20219;-49
2022/03/24 05:31:33;;;;;;;29.08;17.38;;;;;;;6.93;54.57;99745.50;4917199;29;20028;-49
2022/03/24 05:33:59;;;;;;;28.17;18.33;;;;;;;6.92;54.28;99751.66;4918448;29;20024;-49
2022/03/24 05:36:25;;;;;;;24.77;17.95;;;;;;;6.80;54.91;99749.31;4918367;29;20178;-49
2022/03/24 05:38:51;;;;;;;21.92;15.52;;;;;;;6.72;54.93;99754.44;4918369;29;20107;-49
2022/03/24 05:41:17;;;;;;;19.65;15.85;;;;;;;6.71;54.51;99757.19;4918305;29;20115;-49
2022/03/24 05:44:02;;;;;;;24.40;16.70;;;;;;;6.71;55.21;99755.41;4918249;29;20032;-49
2022/03/24 05:46:42;;;;;;;28.73;16.05;;;;;;;6.66;54.79;99755.06;4903562;29;20038;-47
2022/03/24 05:49:15;;;;;;;29.83;16.30;;;;;;;6.89;54.41;99755.41;4916884;29;20032;-49
2022/03/24 05:51:43;;;;;;;24.13;17.08;;;;;;;7.21;54.03;99767.09;4916842;29;20403;-49
2022/03/24 05:54:10;;;;;;;21.58;15.65;;;;;;;7.60;52.47;99769.28;4916801;29;20119;-49
2022/03/24 05:56:36;;;;;;;19.95;15.27;;;;;;;7.90;51.85;99769.78;4916717;29;20028;-49
2022/03/24 05:59:02;;;;;;;26.33;17.58;;;;;;;8.04;51.12;99771.81;4916687;29;20036;-48
2022/03/24 06:01:29;;;;;;;26.95;16.65;;;;;;;7.95;51.14;99775.38;4917897;29;20046;-49
2022/03/24 06:03:55;;;;;;;22.10;16.15;;;;;;;7.95;51.36;99770.97;4917965;29;20032;-49
2022/03/24 06:06:25;;;;;;;25.58;16.73;;;;;;;8.02;51.09;99768.53;4917821;29;20060;-49
2022/03/24 06:08:52;;;;;;;24.73;15.95;;;;;;;8.28;51.19;99772.88;4917776;29;20106;-48
2022/03/24 06:11:19;;;;;;;25.33;16.05;;;;;;;8.45;50.29;99772.00;4917699;29;20020;-49
2022/03/24 06:13:48;;;;;;;25.02;15.90;;;;;;;8.49;50.48;99770.69;4916433;29;20043;-50
2022/03/24 06:16:14;;;;;;;24.45;15.30;;;;;;;8.51;49.71;99770.53;4917671;29;20063;-49
2022/03/24 06:18:40;;;;;;;21.75;15.95;;;;;;;8.45;49.77;99773.78;4917683;29;20024;-50
2022/03/24 06:21:07;;;;;;;23.38;17.00;;;;;;;8.34;50.60;99769.63;4916259;29;20498;-49
2022/03/24 06:23:33;;;;;;;26.13;15.98;;;;;;;8.63;50.60;99776.28;4915988;29;20083;-49
2022/03/24 06:25:59;;;;;;;24.13;16.50;;;;;;;8.89;49.42;99776.97;4916194;29;20028;-49
2022/03/24 06:28:25;;;;;;;24.23;15.32;;;;;;;9.22;48.95;99773.56;4916106;29;20028;-50
2022/03/24 06:30:52;;;;;;;22.83;16.70;;;;;;;9.66;47.93;99774.00;4916113;29;20024;-49
2022/03/24 06:33:18;;;;;;;24.90;14.98;;;;;;;10.02;47.11;99778.81;4916047;29;20028;-49
2022/03/24 06:35:45;;;;;;;25.77;15.18;;;;;;;10.27;45.78;99770.81;4916158;29;20035;-50
2022/03/24 06:38:12;;;;;;;24.65;15.95;;;;;;;10.31;45.41;99777.41;4917270;29;20503;-48
2022/03/24 06:40:39;;;;;;;29.33;16.45;;;;;;;10.63;45.14;99773.78;4915815;29;20036;-49
2022/03/24 06:43:07;;;;;;;23.08;14.93;;;;;;;11.02;44.58;99772.84;4915905;29;20020;-49
2022/03/24 06:45:35;;;;;;;25.65;15.63;;;;;;;11.45;43.37;99772.28;4915913;29;20028;-49
2022/03/24 06:48:01;;;;;;;21.15;16.15;;;;;;;11.73;42.74;99769.88;4915745;29;20040;-49
2022/03/24 06:50:27;;;;;;;23.10;15.38;;;;;;;11.79;42.14;99766.53;4916983;29;20028;-49
2022/03/24 06:52:53;;;;;;;24.38;16.25;;;;;;;11.88;41.76;99775.16;4917007;29;20028;-49
2022/03/24 06:55:19;;;;;;;25.15;16.17;;;;;;;12.11;41.54;99769.81;4915683;29;20039;-49
2022/03/24 06:57:45;;;;;;;30.13;16.08;;;;;;;12.74;40.84;99773.56;4916929;29;20028;-50
2022/03/24 07:00:14;;;;;;;23.60;15.60;;;;;;;13.57;39.18;99768.59;4915540;29;20056;-50
2022/03/24 07:02:43;;;;;;;25.52;15.27;;;;;;;14.34;38.78;99765.94;4916801;29;20522;-50
2022/03/24 07:05:11;;;;;;;22.25;15.48;;;;;;;15.24;36.97;99765.72;4916749;29;20028;-50
2022/03/24 07:07:37;;;;;;;29.92;15.85;;;;;;;15.94;35.11;99755.44;4916700;29;20146;-50
2022/03/24 07:10:04;;;;;;;24.85;15.18;;;;;;;15.80;34.49;99761.81;4916721;29;20057;-50
2022/03/24 07:12:30;;;;;;;27.52;15.02;;;;;;;15.85;34.56;99764.63;4916664;29;20024;-50
2022/03/24 07:14:56;;;;;;;29.52;14.85;;;;;;;16.06;34.21;99768.84;4915330;29;20509;-50
2022/03/24 07:17:23;;;;;;;26.00;15.02;;;;;;;16.10;33.95;99759.47;4916524;29;20506;-50
2022/03/24 07:19:48;;;;;;;24.38;14.98;;;;;;;16.10;33.95;99762.91;4916533;29;20212;-49
2022/03/24 07:22:15;;;;;;;27.55;16.33;;;;;;;16.75;33.66;99759.31;4916200;29;20102;-50
2022/03/24 07:24:42;;;;;;;19.33;14.75;;;;;;;17.24;32.18;99759.59;4915196;29;20079;-50
2022/03/24 07:27:09;;;;;;;28.92;15.13;;;;;;;16.85;32.43;99767.63;4916278;29;20490;-50
2022/03/24 07:29:36;;;;;;;26.75;14.82;;;;;;;16.84;32.97;99762.53;4915097;29;20029;-50
2022/03/24 07:32:02;;;;;;;34.75;15.65;;;;;;;17.77;32.66;99767.84;4916294;29;20567;-51
2022/03/24 07:34:29;;;;;;;27.77;15.75;;;;;;;19.21;31.66;99765.56;4916305;29;20037;-51
2022/03/24 07:36:55;;;;;;;31.10;15.02;;;;;;;20.58;29.63;99755.34;4914954;29;20566;-51
2022/03/24 07:39:20;;;;;;;24.08;14.27;;;;;;;21.53;28.08;99759.03;4916090;29;20462;-51
2022/03/24 07:41:46;;;;;;;21.52;15.00;;;;;;;22.29;26.91;99759.22;4916223;29;20028;-51
2022/03/24 07:44:12;;;;;;;22.90;15.00;;;;;;;22.77;26.32;99755.94;4916385;29;20028;-51
2022/03/24 07:46:38;;;;;;;23.67;15.02;;;;;;;23.63;25.68;99750.41;4915696;29;20032;-51
2022/03/24 07:49:04;;;;;;;26.05;16.20;;;;;;;24.27;24.42;99746.66;4914674;29;20525;-50
2022/03/24 07:51:34;;;;;;;25.60;15.07;;;;;;;24.75;24.37;99743.81;4915987;29;20498;-51
2022/03/24 07:54:03;;;;;;;23.17;15.15;;;;;;;25.24;23.57;99742.47;4914691;29;20410;-51
2022/03/24 07:56:30;;;;;;;23.08;13.85;;;;;;;25.84;22.85;99745.25;4914616;29;20088;-51
2022/03/24 07:58:57;;;;;;;25.85;13.80;;;;;;;25.86;22.66;99748.47;4915910;29;20051;-52
2022/03/24 08:01:28;;;;;;;22.50;13.00;;;;;;;26.29;22.34;99744.22;4914568;29;20035;-51
2022/03/24 08:03:56;;;;;;;19.45;13.88;;;;;;;26.46;21.74;99743.88;4915773;29;20028;-51
2022/03/24 08:06:23;;;;;;;30.73;15.57;;;;;;;26.36;21.51;99740.41;4914451;29;20417;-51
2022/03/24 08:08:48;;;;;;;29.60;19.30;;;;;;;26.52;21.44;99750.00;4914468;29;20066;-51
2022/03/24 08:11:14;;;;;;;28.50;18.23;;;;;;;26.97;21.27;99758.84;4915754;29;20060;-51
2022/03/24 08:13:40;;;;;;;27.23;17.63;;;;;;;27.14;20.99;99750.34;4914430;29;20060;-51
2022/03/24 08:16:06;;;;;;;26.38;17.25;;;;;;;27.34;20.28;99749.38;4914399;29;20091;-51
2022/03/24 08:18:32;;;;;;;33.28;18.65;;;;;;;27.17;20.46;99762.47;4914420;29;20545;-51
2022/03/24 08:20:59;;;;;;;22.10;17.58;;;;;;;26.35;21.10;99754.97;4915585;29;20028;-51
2022/03/24 08:23:25;;;;;;;28.88;18.60;;;;;;;25.99;21.44;99761.34;4914147;29;20482;-51
2022/03/24 08:25:51;;;;;;;35.67;17.73;;;;;;;26.03;21.42;99758.91;4915589;29;20016;-51
2022/03/24 08:28:17;;;;;;;24.00;18.00;;;;;;;26.21;21.70;99749.41;4915492;29;20024;-49
2022/03/24 08:30:47;;;;;;;27.13;18.63;;;;;;;26.58;20.99;99757.03;4915504;29;20550;-51
2022/03/24 08:33:13;;;;;;;29.90;17.02;;;;;;;26.67;20.88;99759.91;4915479;29;20032;-51
2022/03/24 08:35:41;;;;;;;24.10;15.38;;;;;;;26.65;20.68;99757.50;4915491;29;20020;-51
2022/03/24 08:38:08;;;;;;;40.92;16.98;;;;;;;26.03;21.23;99762.41;4915490;29;20515;-51
2022/03/24 08:40:34;;;;;;;23.58;14.70;;;;;;;25.71;21.21;99757.38;4915448;29;20021;-51
2022/03/24 08:43:01;;;;;;;35.70;15.32;;;;;;;25.21;21.62;99768.00;4915403;29;20029;-51
2022/03/24 08:45:27;;;;;;;37.05;16.08;;;;;;;25.34;22.14;99755.88;4914178;29;20024;-51
2022/03/24 08:47:53;;;;;;;22.00;15.82;;;;;;;25.76;21.65;99767.34;4915375;29;20051;-51
2022/03/24 08:50:21;;;;;;;23.27;15.13;;;;;;;26.47;21.11;99761.63;4915310;29;20039;-51
2022/03/24 08:52:48;;;;;;;21.10;15.25;;;;;;;26.93;20.81;99767.78;4915367;29;20032;-52
2022/03/24 08:55:14;;;;;;;27.65;14.25;;;;;;;27.00;20.52;99770.94;4914016;29;20394;-51
2022/03/24 08:57:42;;;;;;;27.65;13.75;;;;;;;27.18;20.44;99764.84;4915465;29;20036;-51
2022/03/24 09:00:14;;;;;;;24.92;14.45;;;;;;;27.20;20.40;99764.56;4917675;29;20032;-52
2022/03/24 09:02:48;;;;;;;27.92;13.82;;;;;;;27.65;19.99;99759.84;4917750;29;20040;-51
2022/03/24 09:05:16;;;;;;;16.38;13.63;;;;;;;28.07;19.84;99764.47;4919008;29;20032;-51
2022/03/24 09:07:43;;;;;;;16.35;13.75;;;;;;;28.39;19.21;99759.44;4918847;29;20119;-51
2022/03/24 09:10:10;;;;;;;19.48;13.43;;;;;;;29.14;19.21;99763.97;4917545;29;20036;-51
2022/03/24 09:12:38;;;;;;;19.05;12.88;;;;;;;29.33;18.37;99757.69;4917577;29;20029;-50
2022/03/24 09:15:07;;;;;;;23.08;13.85;;;;;;;29.69;18.65;99757.81;4918801;29;20103;-51
2022/03/24 09:17:36;;;;;;;24.88;13.15;;;;;;;30.25;18.09;99756.66;4918804;29;20043;-51
2022/03/24 09:20:04;;;;;;;19.30;12.85;;;;;;;30.42;17.58;99755.22;4917390;29;20029;-50
2022/03/24 09:22:30;;;;;;;15.25;12.95;;;;;;;30.30;17.43;99750.31;4917088;29;20079;-49
2022/03/24 09:24:57;;;;;;;19.77;12.23;;;;;;;30.31;17.21;99751.16;4917277;29;20055;-50
2022/03/24 09:27:24;;;;;;;17.25;12.38;;;;;;;30.51;17.14;99755.31;4918482;29;20147;-49
2022/03/24 09:29:49;;;;;;;21.70;11.88;;;;;;;30.39;17.15;99747.72;4918581;29;20020;-49
2022/03/24 09:32:17;;;;;;;21.48;11.90;;;;;;;30.45;17.23;99750.00;4918457;29;20035;-48
2022/03/24 09:34:43;;;;;;;20.88;12.57;;;;;;;30.58;17.44;99742.91;4917130;29;20063;-50
2022/03/24 09:37:09;;;;;;;15.35;11.27;;;;;;;30.82;17.20;99752.63;4917107;29;20032;-50
2022/03/24 09:39:36;;;;;;;17.67;11.63;;;;;;;30.26;17.57;99749.31;4918605;29;20028;-49
2022/03/24 09:42:02;;;;;;;19.15;11.15;;;;;;;29.02;18.32;99750.13;4918271;29;20028;-49
2022/03/24 09:44:28;;;;;;;31.40;11.65;;;;;;;29.03;18.56;99746.28;4916972;29;20038;-49
2022/03/24 09:46:54;;;;;;;23.38;11.93;;;;;;;29.12;18.42;99755.38;4918237;29;20032;-49
2022/03/24 09:49:20;;;;;;;20.70;11.10;;;;;;;29.41;18.16;99751.59;4918147;29;20107;-49
2022/03/24 09:51:47;;;;;;;19.58;11.45;;;;;;;29.77;17.77;99743.59;4916800;29;20433;-49
2022/03/24 09:54:13;;;;;;;24.25;11.45;;;;;;;30.02;17.52;99744.16;4918137;29;20043;-49
2022/03/24 09:56:39;;;;;;;19.77;11.90;;;;;;;30.62;17.37;99740.38;4918008;29;20020;-48
2022/03/24 09:59:09;;;;;;;15.55;12.02;;;;;;;30.87;16.75;99738.97;4916696;29;20039;-49
2022/03/24 10:01:41;;;;;;;26.15;11.65;;;;;;;31.04;16.97;99739.06;4917980;29;20095;-50
2022/03/24 10:04:14;;;;;;;22.83;12.13;;;;;;;31.73;16.64;99728.81;4916716;29;20033;-49
2022/03/24 10:07:01;;;;;;;32.25;11.60;;;;;;;32.29;15.72;99737.22;4918207;29;20578;-49
2022/03/24 10:09:46;;;;;;;21.45;11.38;;;;;;;32.72;15.26;99726.34;4917581;29;20039;-50
2022/03/24 10:12:33;;;;;;;26.73;12.70;;;;;;;32.72;15.57;99730.97;4916549;29;20036;-50
2022/03/24 10:15:08;;;;;;;24.17;11.82;;;;;;;32.69;15.43;99718.81;4917815;29;20105;-50
2022/03/24 10:17:35;;;;;;;16.50;10.93;;;;;;;32.65;15.08;99726.03;4917679;29;20032;-50
2022/03/24 10:20:05;;;;;;;31.48;14.15;;;;;;;32.38;15.42;99716.28;4916271;29;20500;-50
2022/03/24 10:22:32;;;;;;;20.65;12.75;;;;;;;32.44;14.96;99723.97;4917414;29;20079;-49
2022/03/24 10:24:59;;;;;;;18.77;10.95;;;;;;;33.15;14.30;99722.72;4916178;29;20479;-52
2022/03/24 10:27:27;;;;;;;21.30;11.05;;;;;;;33.63;14.17;99713.38;4917450;29;20111;-50
2022/03/24 10:29:58;;;;;;;20.23;11.40;;;;;;;33.44;13.99;99712.97;4916189;29;20038;-51
2022/03/24 10:32:29;;;;;;;14.63;10.85;;;;;;;34.00;13.75;99707.38;4917380;29;20107;-52
2022/03/24 10:35:17;;;;;;;19.13;10.95;;;;;;;34.53;13.47;99705.00;4917344;29;20056;-51
2022/03/24 10:37:49;;;;;;;22.42;12.75;;;;;;;34.60;12.96;99705.28;4915668;29;20581;-52
2022/03/24 10:40:15;;;;;;;13.02;10.43;;;;;;;35.10;12.85;99708.91;4917305;29;20032;-51
2022/03/24 10:42:41;;;;;;;24.85;12.27;;;;;;;35.04;12.88;99715.72;4916130;29;20059;-51
2022/03/24 10:45:21;;;;;;;20.92;11.65;;;;;;;34.89;12.76;99704.31;4917186;29;20038;-52
2022/03/24 10:47:56;;;;;;;15.52;11.32;;;;;;;35.05;12.06;99706.41;4915850;29;20120;-51
2022/03/24 10:50:28;;;;;;;20.13;11.00;;;;;;;35.39;12.44;99705.19;4917103;29;20025;-51
2022/03/24 10:52:59;;;;;;;16.77;11.18;;;;;;;35.22;12.64;99706.22;4915781;29;20035;-52
2022/03/24 10:55:43;;;;;;;16.38;11.18;;;;;;;35.21;12.76;99712.81;4917075;29;20036;-52
2022/03/24 10:58:22;;;;;;;18.50;11.02;;;;;;;35.16;12.61;99697.47;4915667;29;20111;-52
2022/03/24 11:00:52;;;;;;;30.05;12.15;;;;;;;34.94;12.86;99698.66;4916870;29;20043;-51
2022/03/24 11:03:19;;;;;;;21.77;11.50;;;;;;;34.97;12.78;99694.44;4915607;29;20107;-50
2022/03/24 11:05:45;;;;;;;18.50;12.13;;;;;;;34.70;12.50;99696.69;4916803;29;20032;-49
2022/03/24 11:08:15;;;;;;;16.65;11.68;;;;;;;34.81;12.62;99680.66;4916686;29;20035;-50
2022/03/24 11:10:49;;;;;;;14.77;11.68;;;;;;;34.65;12.76;99676.97;4916740;29;20028;-50
2022/03/24 11:13:40;;;;;;;14.73;11.90;;;;;;;34.56;13.15;99682.53;4915391;29;20056;-50
2022/03/24 11:16:10;;;;;;;14.23;12.20;;;;;;;34.38;13.16;99682.69;4915316;29;20051;-49
2022/03/24 11:18:36;;;;;;;16.95;11.80;;;;;;;33.69;13.40;99683.25;4916595;29;20095;-50
2022/03/24 11:21:09;;;;;;;19.80;12.02;;;;;;;33.36;13.97;99673.00;4915852;29;20520;-50
2022/03/24 11:23:35;;;;;;;17.42;12.07;;;;;;;33.09;13.58;99677.00;4915192;29;20051;-49
2022/03/24 11:26:04;;;;;;;18.60;12.02;;;;;;;32.78;13.78;99678.00;4916449;29;20021;-50
2022/03/24 11:28:34;;;;;;;17.10;12.82;;;;;;;32.98;13.99;99673.78;4916350;29;20051;-50
2022/03/24 11:31:18;;;;;;;22.63;12.77;;;;;;;33.28;13.91;99665.69;4916315;29;20028;-50